Buoy 51523

sailwx.info

Track history (hours):
 
Tides and Currents Weather Stations Pressure Air Temp Water Temp Dewpoint Dewpoint Depression Visibility Wind Speed Wind Dir Waves Ship Positions

Drifting buoy 51523

Last reported at 2015-Jan-29 21:00 UTC. Time now 2015-Jan-30 00:25 UTC.
Position N 10°26' W 145°40'.

Water temperature 26.9 ° C

Date/timePositionNaut miles runAvg speedWind from/ knotsBaromVisibWave heightAir tempDewpointWater temp
2015-Jan-29 21:00N 10°26' W 145°40'0 0.0 26.9
2015-Jan-29 20:15N 10°26' W 145°40'0 0.0 26.9
2015-Jan-29 20:00N 10°26' W 145°40'2 3.2 26.9
2015-Jan-29 19:30N 10°25' W 145°41'0 0.0 26.8
2015-Jan-29 19:15N 10°25' W 145°41'0 0.0 26.8
2015-Jan-29 18:30N 10°25' W 145°41'0 0.2 26.8
2015-Jan-29 16:45N 10°25' W 145°41'0 0.0 26.8
2015-Jan-29 16:30N 10°25' W 145°41'0 0.0 26.8
2015-Jan-29 15:30N 10°25' W 145°41'1 3.3 26.8
2015-Jan-29 15:15N 10°24' W 145°41'0 0.0 26.8
2015-Jan-29 15:00N 10°24' W 145°41'0 0.5 26.8
2015-Jan-29 14:00N 10°24' W 145°41'0 0.0 26.8
2015-Jan-29 13:45N 10°24' W 145°41'0 0.0 26.8
2015-Jan-29 12:15N 10°24' W 145°41'2 0.7 26.8
2015-Jan-29 08:30N 10°21' W 145°42'1 3.4 26.9
2015-Jan-29 08:15N 10°22' W 145°41'0 0.0 26.9
2015-Jan-29 07:45N 10°22' W 145°41'1 2.9 26.9
2015-Jan-29 07:30N 10°21' W 145°42'1 1.1 26.9
2015-Jan-29 06:45N 10°21' W 145°43'0 0.0 26.9
2015-Jan-29 06:30N 10°21' W 145°43'0 0.0 26.9
2015-Jan-29 04:30N 10°21' W 145°42'1 4.2 26.9
2015-Jan-29 04:15N 10°20' W 145°42'0 0.0 26.9
2015-Jan-29 04:00N 10°20' W 145°42'0 0.1 26.9
2015-Jan-29 03:00N 10°20' W 145°42'415.4 26.9
2015-Jan-29 02:45N 10°16' W 145°40'0 0.0 26.9
2015-Jan-29 01:15N 10°16' W 145°40'0 0.0 27.0
2015-Jan-28 23:45N 10°16' W 145°40'0 0.0 26.9
2015-Jan-28 23:30N 10°16' W 145°40'0 0.0 26.9
2015-Jan-28 20:30N 10°16' W 145°40'1 1.1 26.8
2015-Jan-28 19:45N 10°16' W 145°40'0 1.7 26.8
2015-Jan-28 19:30N 10°16' W 145°40'0 0.8 26.8
2015-Jan-28 19:00N 10°16' W 145°40'2 6.6 26.8
2015-Jan-28 18:45N 10°14' W 145°39'0 0.1 26.8
2015-Jan-28 15:45N 10°14' W 145°39'0 0.0 26.8
2015-Jan-28 15:30N 10°14' W 145°39'1 0.6 26.8
2015-Jan-28 14:00N 10°13' W 145°38'2 1.5 26.8
2015-Jan-28 12:30N 10°12' W 145°37'0 0.0 26.8
2015-Jan-28 08:45N 10°12' W 145°37'1 1.7 26.8
2015-Jan-28 08:00N 10°11' W 145°35'0 0.0 26.8
2015-Jan-28 07:45N 10°11' W 145°35'1 1.2 26.8
2015-Jan-28 07:00N 10°12' W 145°35'0 0.0 26.8
2015-Jan-28 06:15N 10°12' W 145°35'1 0.7 26.9
2015-Jan-28 04:45N 10°12' W 145°34'1 4.0 26.9
2015-Jan-28 04:30N 10°12' W 145°35'2 1.3 26.9
2015-Jan-28 03:00N 10°13' W 145°33'0 0.0 26.9
2015-Jan-28 01:30N 10°13' W 145°33'0 0.2 26.9
2015-Jan-27 23:45N 10°13' W 145°33'1 0.1 27.0
2015-Jan-27 20:00N 10°13' W 145°33'0 0.0 26.9
2015-Jan-27 19:15N 10°13' W 145°33'1 4.6 26.8
2015-Jan-27 19:00N 10°14' W 145°33'0 0.0 26.8
2015-Jan-27 18:15N 10°14' W 145°33'0 0.0 26.8
2015-Jan-27 16:15N 10°14' W 145°33'0 1.2 26.8
2015-Jan-27 16:00N 10°15' W 145°33'1 3.7 26.8
2015-Jan-27 15:45N 10°14' W 145°33'1 1.1 26.8
2015-Jan-27 14:30N 10°15' W 145°33'1 2.9 26.8
2015-Jan-27 14:15N 10°15' W 145°34'0 0.0 26.9
2015-Jan-27 14:00N 10°15' W 145°34'0 0.0 26.8
2015-Jan-27 12:45N 10°15' W 145°34'0 0.0 26.9
2015-Jan-27 12:30N 10°15' W 145°34'2 1.2 26.8
2015-Jan-27 11:00N 10°15' W 145°35'1 0.4 26.9
2015-Jan-27 08:15N 10°14' W 145°35'0 0.0 26.9
2015-Jan-27 07:30N 10°14' W 145°35'1 2.4 26.9
2015-Jan-27 07:15N 10°14' W 145°35'2 2.1 26.9
2015-Jan-27 06:30N 10°14' W 145°37'0 0.0 26.9
2015-Jan-27 05:00N 10°14' W 145°37'1 1.0 26.9
2015-Jan-27 03:45N 10°14' W 145°36'1 3.3 27.0
2015-Jan-27 03:30N 10°14' W 145°37'1 3.3 27.0
2015-Jan-27 03:15N 10°13' W 145°37'0 0.0 27.0
2015-Jan-27 03:00N 10°13' W 145°37'1 0.7 27.0
2015-Jan-27 01:45N 10°12' W 145°37'2 1.4 27.1
2015-Jan-27 00:00N 10°10' W 145°37'0 0.0 27.1
2015-Jan-26 23:45N 10°10' W 145°37'1 0.2 27.1
2015-Jan-26 20:15N 10°10' W 145°36'1 0.9 26.9
2015-Jan-26 19:30N 10°10' W 145°36'1 1.4 26.8
2015-Jan-26 18:45N 10°10' W 145°37'0 0.0 26.8
2015-Jan-26 18:30N 10°10' W 145°37'0 0.0 26.8
2015-Jan-26 16:45N 10°10' W 145°37'1 2.6 26.8
2015-Jan-26 16:30N 10°10' W 145°38'0 0.1 26.8
2015-Jan-26 15:00N 10°11' W 145°38'0 1.8 26.8
2015-Jan-26 14:45N 10°10' W 145°37'0 0.5 26.8
2015-Jan-26 14:30N 10°11' W 145°37'1 3.6 26.8
2015-Jan-26 14:15N 10°11' W 145°38'0 0.0 26.8
2015-Jan-26 13:00N 10°11' W 145°38'0 0.0 26.8
2015-Jan-26 12:45N 10°11' W 145°38'1 0.8 26.8
2015-Jan-26 11:15N 10°10' W 145°39'0 0.0 26.8
2015-Jan-26 11:00N 10°10' W 145°39'0 0.0 26.8
2015-Jan-26 08:45N 10°10' W 145°39'0 0.0 26.9
2015-Jan-26 08:30N 10°10' W 145°39'1 1.5 26.9
2015-Jan-26 07:45N 10°09' W 145°40'0 0.0 26.9
2015-Jan-26 07:30N 10°09' W 145°40'0 0.0 26.9
2015-Jan-26 07:00N 10°09' W 145°40'0 0.0 26.9
2015-Jan-26 06:45N 10°09' W 145°40'0 0.2 26.9
2015-Jan-26 04:00N 10°09' W 145°39'0 0.0 26.9
2015-Jan-26 03:45N 10°09' W 145°39'1 4.6 26.9
2015-Jan-26 03:30N 10°08' W 145°39'0 0.0 26.9
2015-Jan-26 03:15N 10°08' W 145°39'0 0.0 27.0
2015-Jan-26 02:30N 10°08' W 145°39'0 0.0 27.0
2015-Jan-26 02:15N 10°08' W 145°39'0 0.0 27.0
2015-Jan-26 01:45N 10°08' W 145°39'0 0.0 27.0
2015-Jan-26 00:15N 10°08' W 145°39'2 6.3 27.0
2015-Jan-26 00:00N 10°06' W 145°38'0 0.0 27.0
2015-Jan-25 20:45N 10°06' W 145°38'0 0.0 26.9
2015-Jan-25 20:30N 10°06' W 145°38'0 0.9 26.9
2015-Jan-25 20:00N 10°06' W 145°38'0 1.9 26.9
2015-Jan-25 19:45N 10°06' W 145°38'0 0.5 26.8
2015-Jan-25 19:00N 10°06' W 145°38'1 1.0 26.8
2015-Jan-25 18:15N 10°06' W 145°38'0 0.0 26.8
2015-Jan-25 17:15N 10°06' W 145°38'0 0.0 26.8
2015-Jan-25 17:00N 10°06' W 145°38'0 0.2 26.8
2015-Jan-25 15:30N 10°05' W 145°38'0 0.0 26.8
2015-Jan-25 15:15N 10°05' W 145°38'0 0.4 26.8
2015-Jan-25 14:45N 10°05' W 145°38'0 0.0 26.8
2015-Jan-25 14:30N 10°05' W 145°38'1 0.5 26.8
2015-Jan-25 13:00N 10°05' W 145°38'0 0.3 26.8
2015-Jan-25 11:30N 10°04' W 145°38'1 5.2 26.8
2015-Jan-25 11:15N 10°03' W 145°38'0 0.0 26.8
2015-Jan-25 08:15N 10°03' W 145°38'1 1.1 26.8
2015-Jan-25 07:15N 10°03' W 145°37'0 0.0 26.8
2015-Jan-25 06:30N 10°03' W 145°37'1 2.6 26.9
2015-Jan-25 06:15N 10°03' W 145°36'1 0.3 26.9
2015-Jan-25 04:30N 10°02' W 145°36'1 2.4 26.9
2015-Jan-25 04:15N 10°03' W 145°36'1 1.2 26.9
2015-Jan-25 03:45N 10°02' W 145°36'0 0.5 26.9
2015-Jan-25 03:30N 10°02' W 145°36'0 0.6 26.9
2015-Jan-25 02:45N 10°03' W 145°35'1 1.0 26.9
2015-Jan-25 02:00N 10°03' W 145°35'0 0.0 27.0
2015-Jan-25 01:45N 10°03' W 145°35'0 0.0 27.0
2015-Jan-25 00:30N 10°03' W 145°35'0 0.5 27.0
2015-Jan-25 00:15N 10°03' W 145°35'2 1.0 27.0
2015-Jan-24 22:45N 10°05' W 145°34'0 0.0 27.0
2015-Jan-24 21:00N 10°05' W 145°34'1 1.5 26.9
2015-Jan-24 20:15N 10°06' W 145°34'0 0.0 26.8
2015-Jan-24 19:30N 10°06' W 145°34'0 0.0 26.8
2015-Jan-24 19:15N 10°06' W 145°34'1 1.0 26.8
2015-Jan-24 18:45N 10°05' W 145°34'0 0.0 26.8
2015-Jan-24 18:30N 10°05' W 145°34'0 0.0 26.8
2015-Jan-24 17:30N 10°05' W 145°34'0 0.3 26.8
2015-Jan-24 16:00N 10°05' W 145°34'0 0.0 26.8
2015-Jan-24 15:45N 10°05' W 145°34'0 0.0 26.8
2015-Jan-24 15:30N 10°05' W 145°34'1 1.9 26.8
2015-Jan-24 14:45N 10°06' W 145°36'0 0.1 26.8
2015-Jan-24 13:15N 10°06' W 145°36'0 0.0 26.8
2015-Jan-24 13:00N 10°06' W 145°36'1 0.4 26.8
2015-Jan-24 11:30N 10°06' W 145°36'1 0.3 26.8
2015-Jan-24 08:30N 10°05' W 145°37'0 0.0 26.8
2015-Jan-24 08:15N 10°05' W 145°37'1 1.8 26.9
2015-Jan-24 07:30N 10°04' W 145°37'2 2.3 26.9
2015-Jan-24 06:45N 10°03' W 145°38'1 0.4 26.9
2015-Jan-24 03:45N 10°03' W 145°37'1 2.6 26.9
2015-Jan-24 03:30N 10°03' W 145°38'0 0.0 26.9
2015-Jan-24 03:15N 10°03' W 145°38'1 5.4 26.9
2015-Jan-24 03:00N 10°02' W 145°39'0 0.0 26.9
2015-Jan-24 02:15N 10°02' W 145°39'2 6.6 27.0
2015-Jan-24 02:00N 10°03' W 145°38'1 0.9 27.0
2015-Jan-24 00:30N 10°02' W 145°38'1 0.4 27.0
2015-Jan-23 22:45N 10°01' W 145°38'0 0.0 26.9
2015-Jan-23 20:30N 10°01' W 145°38'1 1.5 26.9
2015-Jan-23 19:45N 10°00' W 145°38'1 3.4 26.9
2015-Jan-23 19:30N 10°01' W 145°38'1 2.8 26.9
2015-Jan-23 19:00N 09°59' W 145°38'0 0.0 26.8
2015-Jan-23 18:45N 09°59' W 145°38'0 0.2 26.8
2015-Jan-23 16:30N 09°59' W 145°39'0 0.0 26.8
2015-Jan-23 15:00N 09°59' W 145°39'1 4.9 26.8
2015-Jan-23 14:45N 09°59' W 145°38'0 0.0 26.8
2015-Jan-23 14:30N 09°59' W 145°38'0 0.0 26.8
2015-Jan-23 13:30N 09°59' W 145°38'0 0.0 26.8
2015-Jan-23 13:15N 09°59' W 145°38'2 1.5 26.8
2015-Jan-23 11:45N 09°57' W 145°40'0 0.0 26.9
2015-Jan-23 11:30N 09°57' W 145°40'0 0.0 26.9
2015-Jan-23 08:45N 09°57' W 145°40'1 1.5 26.9
2015-Jan-23 08:00N 09°57' W 145°39'0 0.0 26.9
2015-Jan-23 07:45N 09°57' W 145°39'0 0.0 26.9
2015-Jan-23 07:15N 09°57' W 145°39'2 6.0 26.9
2015-Jan-23 07:00N 09°55' W 145°39'0 0.0 26.9
2015-Jan-23 06:15N 09°55' W 145°39'0 0.0 26.9
2015-Jan-23 05:30N 09°55' W 145°39'1 0.5 26.9
2015-Jan-23 04:00N 09°54' W 145°39'0 0.0 26.9
2015-Jan-23 03:45N 09°54' W 145°39'0 0.0 26.9
2015-Jan-23 03:30N 09°54' W 145°39'0 0.0 26.9
2015-Jan-23 02:30N 09°54' W 145°39'0 1.7 27.0
2015-Jan-23 02:15N 09°54' W 145°39'0 0.0 27.0
2015-Jan-23 02:00N 09°54' W 145°39'0 0.0 27.0
2015-Jan-23 01:45N 09°54' W 145°39'1 1.2 27.0
2015-Jan-23 00:45N 09°53' W 145°39'0 0.0 27.0
2015-Jan-23 00:30N 09°53' W 145°39'1 0.7 27.0
2015-Jan-22 23:00N 09°52' W 145°39'2 0.5 26.9
2015-Jan-22 20:00N 09°51' W 145°37'1 0.9 26.9
2015-Jan-22 19:15N 09°52' W 145°37'0 0.0 26.8
2015-Jan-22 18:30N 09°52' W 145°37'0 0.0 26.8
2015-Jan-22 18:15N 09°52' W 145°37'0 0.3 26.8
2015-Jan-22 17:00N 09°52' W 145°38'0 0.0 26.8
2015-Jan-22 15:15N 09°52' W 145°38'1 2.6 26.8
2015-Jan-22 15:00N 09°52' W 145°38'0 0.0 26.8
2015-Jan-22 13:30N 09°52' W 145°38'0 0.1 26.8
2015-Jan-22 12:00N 09°52' W 145°38'0 0.0 26.8
2015-Jan-22 11:45N 09°52' W 145°38'2 0.6 26.8
2015-Jan-22 08:15N 09°50' W 145°39'0 0.4 26.9
2015-Jan-22 07:30N 09°50' W 145°39'0 0.0 26.9
2015-Jan-22 07:15N 09°50' W 145°39'0 0.0 26.9
2015-Jan-22 06:45N 09°50' W 145°39'1 3.7 26.9
2015-Jan-22 06:30N 09°49' W 145°39'0 0.1 26.9
2015-Jan-22 04:30N 09°49' W 145°39'0 0.0 26.9
2015-Jan-22 04:15N 09°49' W 145°39'1 2.9 26.9
2015-Jan-22 04:00N 09°49' W 145°38'1 2.9 26.9
2015-Jan-22 03:45N 09°49' W 145°39'1 0.6 26.9
2015-Jan-22 02:30N 09°49' W 145°38'0 1.5 27.0
2015-Jan-22 02:15N 09°49' W 145°38'1 0.4 27.0
2015-Jan-22 01:00N 09°49' W 145°38'0 0.0 27.0
2015-Jan-22 00:45N 09°49' W 145°38'1 0.9 27.0
2015-Jan-21 23:15N 09°50' W 145°39'0 0.0 27.0
2015-Jan-21 23:00N 09°50' W 145°39'0 0.0 26.9
2015-Jan-21 20:15N 09°50' W 145°39'1 1.9 26.8
2015-Jan-21 19:45N 09°50' W 145°38'1 0.5 26.8
2015-Jan-21 18:45N 09°50' W 145°38'0 0.0 26.8
2015-Jan-21 16:00N 09°50' W 145°38'0 0.8 26.8
2015-Jan-21 15:45N 09°51' W 145°38'0 0.0 26.8
2015-Jan-21 15:30N 09°51' W 145°38'0 0.0 26.8
2015-Jan-21 15:15N 09°51' W 145°38'1 0.8 26.8
2015-Jan-21 13:45N 09°50' W 145°40'0 0.0 26.8
2015-Jan-21 13:30N 09°50' W 145°40'0 0.3 26.8
2015-Jan-21 12:15N 09°50' W 145°40'2 8.8 26.8
2015-Jan-21 12:00N 09°49' W 145°42'1 0.3 26.8
2015-Jan-21 07:45N 09°49' W 145°43'0 0.0 26.9
2015-Jan-21 07:00N 09°49' W 145°43'0 0.0 26.9
2015-Jan-21 06:00N 09°49' W 145°43'1 1.0 26.9
2015-Jan-21 05:00N 09°48' W 145°42'1 3.9 26.9
2015-Jan-21 04:45N 09°49' W 145°43'1 0.5 26.9
2015-Jan-21 03:15N 09°48' W 145°43'1 1.1 26.9
2015-Jan-21 02:45N 09°47' W 145°43'0 0.0 26.9
2015-Jan-21 02:30N 09°47' W 145°43'0 0.3 26.9
2015-Jan-21 01:15N 09°48' W 145°43'0 1.5 26.9
2015-Jan-21 01:00N 09°47' W 145°42'0 0.0 26.9
2015-Jan-20 23:30N 09°47' W 145°42'2 8.3 26.9
2015-Jan-20 23:15N 09°47' W 145°44'0 0.0 26.9
2015-Jan-20 20:45N 09°47' W 145°44'1 1.9 26.9
2015-Jan-20 20:00N 09°46' W 145°43'1 3.1 26.9
2015-Jan-20 19:45N 09°47' W 145°44'2 4.6 26.9
2015-Jan-20 19:15N 09°45' W 145°44'0 0.0 26.8
2015-Jan-20 19:00N 09°45' W 145°44'0 0.0 26.8
2015-Jan-20 18:15N 09°45' W 145°44'1 0.3 26.8
2015-Jan-20 16:15N 09°45' W 145°43'0 0.0 26.8
2015-Jan-20 15:45N 09°45' W 145°43'0 0.0 26.8
2015-Jan-20 15:30N 09°45' W 145°43'2 2.2 26.8
2015-Jan-20 14:45N 09°44' W 145°44'0 0.0 26.8
2015-Jan-20 14:00N 09°44' W 145°44'2 8.5 26.8
2015-Jan-20 13:45N 09°42' W 145°44'0 0.0 26.8
2015-Jan-20 12:15N 09°42' W 145°44'1 0.2 26.9
2015-Jan-20 08:15N 09°42' W 145°43'0 0.0 26.9
2015-Jan-20 08:00N 09°42' W 145°43'0 0.4 26.9
2015-Jan-20 07:30N 09°42' W 145°43'1 2.1 26.9
2015-Jan-20 07:15N 09°41' W 145°43'2 2.1 26.9
2015-Jan-20 06:30N 09°40' W 145°43'0 0.0 26.9
2015-Jan-20 05:30N 09°40' W 145°43'0 0.0 26.9
2015-Jan-20 03:45N 09°40' W 145°43'0 0.0 26.9
2015-Jan-20 03:00N 09°40' W 145°43'310.2 27.0
2015-Jan-20 02:45N 09°39' W 145°41'0 0.0 27.0
2015-Jan-20 01:15N 09°39' W 145°41'0 0.0 27.0
2015-Jan-19 23:45N 09°39' W 145°41'0 0.0 27.0
2015-Jan-19 23:30N 09°39' W 145°41'0 0.1 27.0
2015-Jan-19 21:00N 09°39' W 145°40'   26.9
Track history (hours):
 
Tides and Currents Weather Stations Pressure Air Temp Water Temp Dewpoint Dewpoint Depression Visibility Wind Speed Wind Dir Waves Ship Positions

Drifting buoy 51523

Last reported at 2015-Jan-29 21:00 UTC. Time now 2015-Jan-30 00:25 UTC.
Position N 10°26' W 145°40'.

Water temperature 26.9 ° C

Date/timePositionNaut miles runAvg speedWind from/ knotsBaromVisibWave heightAir tempDewpointWater temp
2015-Jan-29 21:00N 10°26' W 145°40'0 0.0 26.9
2015-Jan-29 20:15N 10°26' W 145°40'0 0.0 26.9
2015-Jan-29 20:00N 10°26' W 145°40'2 3.2 26.9
2015-Jan-29 19:30N 10°25' W 145°41'0 0.0 26.8
2015-Jan-29 19:15N 10°25' W 145°41'0 0.0 26.8
2015-Jan-29 18:30N 10°25' W 145°41'0 0.2 26.8
2015-Jan-29 16:45N 10°25' W 145°41'0 0.0 26.8
2015-Jan-29 16:30N 10°25' W 145°41'0 0.0 26.8
2015-Jan-29 15:30N 10°25' W 145°41'1 3.3 26.8
2015-Jan-29 15:15N 10°24' W 145°41'0 0.0 26.8
2015-Jan-29 15:00N 10°24' W 145°41'0 0.5 26.8
2015-Jan-29 14:00N 10°24' W 145°41'0 0.0 26.8
2015-Jan-29 13:45N 10°24' W 145°41'0 0.0 26.8
2015-Jan-29 12:15N 10°24' W 145°41'2 0.7 26.8
2015-Jan-29 08:30N 10°21' W 145°42'1 3.4 26.9
2015-Jan-29 08:15N 10°22' W 145°41'0 0.0 26.9
2015-Jan-29 07:45N 10°22' W 145°41'1 2.9 26.9
2015-Jan-29 07:30N 10°21' W 145°42'1 1.1 26.9
2015-Jan-29 06:45N 10°21' W 145°43'0 0.0 26.9
2015-Jan-29 06:30N 10°21' W 145°43'0 0.0 26.9
2015-Jan-29 04:30N 10°21' W 145°42'1 4.2 26.9
2015-Jan-29 04:15N 10°20' W 145°42'0 0.0 26.9
2015-Jan-29 04:00N 10°20' W 145°42'0 0.1 26.9
2015-Jan-29 03:00N 10°20' W 145°42'415.4 26.9
2015-Jan-29 02:45N 10°16' W 145°40'0 0.0 26.9
2015-Jan-29 01:15N 10°16' W 145°40'0 0.0 27.0
2015-Jan-28 23:45N 10°16' W 145°40'0 0.0 26.9
2015-Jan-28 23:30N 10°16' W 145°40'0 0.0 26.9
2015-Jan-28 20:30N 10°16' W 145°40'1 1.1 26.8
2015-Jan-28 19:45N 10°16' W 145°40'0 1.7 26.8
2015-Jan-28 19:30N 10°16' W 145°40'0 0.8 26.8
2015-Jan-28 19:00N 10°16' W 145°40'2 6.6 26.8
2015-Jan-28 18:45N 10°14' W 145°39'0 0.1 26.8
2015-Jan-28 15:45N 10°14' W 145°39'0 0.0 26.8
2015-Jan-28 15:30N 10°14' W 145°39'1 0.6 26.8
2015-Jan-28 14:00N 10°13' W 145°38'2 1.5 26.8
2015-Jan-28 12:30N 10°12' W 145°37'0 0.0 26.8
2015-Jan-28 08:45N 10°12' W 145°37'1 1.7 26.8
2015-Jan-28 08:00N 10°11' W 145°35'0 0.0 26.8
2015-Jan-28 07:45N 10°11' W 145°35'1 1.2 26.8
2015-Jan-28 07:00N 10°12' W 145°35'0 0.0 26.8
2015-Jan-28 06:15N 10°12' W 145°35'1 0.7 26.9
2015-Jan-28 04:45N 10°12' W 145°34'1 4.0 26.9
2015-Jan-28 04:30N 10°12' W 145°35'2 1.3 26.9
2015-Jan-28 03:00N 10°13' W 145°33'0 0.0 26.9
2015-Jan-28 01:30N 10°13' W 145°33'0 0.2 26.9
2015-Jan-27 23:45N 10°13' W 145°33'1 0.1 27.0
2015-Jan-27 20:00N 10°13' W 145°33'0 0.0 26.9
2015-Jan-27 19:15N 10°13' W 145°33'1 4.6 26.8
2015-Jan-27 19:00N 10°14' W 145°33'0 0.0 26.8
2015-Jan-27 18:15N 10°14' W 145°33'0 0.0 26.8
2015-Jan-27 16:15N 10°14' W 145°33'0 1.2 26.8
2015-Jan-27 16:00N 10°15' W 145°33'1 3.7 26.8
2015-Jan-27 15:45N 10°14' W 145°33'1 1.1 26.8
2015-Jan-27 14:30N 10°15' W 145°33'1 2.9 26.8
2015-Jan-27 14:15N 10°15' W 145°34'0 0.0 26.9
2015-Jan-27 14:00N 10°15' W 145°34'0 0.0 26.8
2015-Jan-27 12:45N 10°15' W 145°34'0 0.0 26.9
2015-Jan-27 12:30N 10°15' W 145°34'2 1.2 26.8
2015-Jan-27 11:00N 10°15' W 145°35'1 0.4 26.9
2015-Jan-27 08:15N 10°14' W 145°35'0 0.0 26.9
2015-Jan-27 07:30N 10°14' W 145°35'1 2.4 26.9
2015-Jan-27 07:15N 10°14' W 145°35'2 2.1 26.9
2015-Jan-27 06:30N 10°14' W 145°37'0 0.0 26.9
2015-Jan-27 05:00N 10°14' W 145°37'1 1.0 26.9
2015-Jan-27 03:45N 10°14' W 145°36'1 3.3 27.0
2015-Jan-27 03:30N 10°14' W 145°37'1 3.3 27.0
2015-Jan-27 03:15N 10°13' W 145°37'0 0.0 27.0
2015-Jan-27 03:00N 10°13' W 145°37'1 0.7 27.0
2015-Jan-27 01:45N 10°12' W 145°37'2 1.4 27.1
2015-Jan-27 00:00N 10°10' W 145°37'0 0.0 27.1
2015-Jan-26 23:45N 10°10' W 145°37'1 0.2 27.1
2015-Jan-26 20:15N 10°10' W 145°36'1 0.9 26.9
2015-Jan-26 19:30N 10°10' W 145°36'1 1.4 26.8
2015-Jan-26 18:45N 10°10' W 145°37'0 0.0 26.8
2015-Jan-26 18:30N 10°10' W 145°37'0 0.0 26.8
2015-Jan-26 16:45N 10°10' W 145°37'1 2.6 26.8
2015-Jan-26 16:30N 10°10' W 145°38'0 0.1 26.8
2015-Jan-26 15:00N 10°11' W 145°38'0 1.8 26.8
2015-Jan-26 14:45N 10°10' W 145°37'0 0.5 26.8
2015-Jan-26 14:30N 10°11' W 145°37'1 3.6 26.8
2015-Jan-26 14:15N 10°11' W 145°38'0 0.0 26.8
2015-Jan-26 13:00N 10°11' W 145°38'0 0.0 26.8
2015-Jan-26 12:45N 10°11' W 145°38'1 0.8 26.8
2015-Jan-26 11:15N 10°10' W 145°39'0 0.0 26.8
2015-Jan-26 11:00N 10°10' W 145°39'0 0.0 26.8
2015-Jan-26 08:45N 10°10' W 145°39'0 0.0 26.9
2015-Jan-26 08:30N 10°10' W 145°39'1 1.5 26.9
2015-Jan-26 07:45N 10°09' W 145°40'0 0.0 26.9
2015-Jan-26 07:30N 10°09' W 145°40'0 0.0 26.9
2015-Jan-26 07:00N 10°09' W 145°40'0 0.0 26.9
2015-Jan-26 06:45N 10°09' W 145°40'0 0.2 26.9
2015-Jan-26 04:00N 10°09' W 145°39'0 0.0 26.9
2015-Jan-26 03:45N 10°09' W 145°39'1 4.6 26.9
2015-Jan-26 03:30N 10°08' W 145°39'0 0.0 26.9
2015-Jan-26 03:15N 10°08' W 145°39'0 0.0 27.0
2015-Jan-26 02:30N 10°08' W 145°39'0 0.0 27.0
2015-Jan-26 02:15N 10°08' W 145°39'0 0.0 27.0
2015-Jan-26 01:45N 10°08' W 145°39'0 0.0 27.0
2015-Jan-26 00:15N 10°08' W 145°39'2 6.3 27.0
2015-Jan-26 00:00N 10°06' W 145°38'0 0.0 27.0
2015-Jan-25 20:45N 10°06' W 145°38'0 0.0 26.9
2015-Jan-25 20:30N 10°06' W 145°38'0 0.9 26.9
2015-Jan-25 20:00N 10°06' W 145°38'0 1.9 26.9
2015-Jan-25 19:45N 10°06' W 145°38'0 0.5 26.8
2015-Jan-25 19:00N 10°06' W 145°38'1 1.0 26.8
2015-Jan-25 18:15N 10°06' W 145°38'0 0.0 26.8
2015-Jan-25 17:15N 10°06' W 145°38'0 0.0 26.8
2015-Jan-25 17:00N 10°06' W 145°38'0 0.2 26.8
2015-Jan-25 15:30N 10°05' W 145°38'0 0.0 26.8
2015-Jan-25 15:15N 10°05' W 145°38'0 0.4 26.8
2015-Jan-25 14:45N 10°05' W 145°38'0 0.0 26.8
2015-Jan-25 14:30N 10°05' W 145°38'1 0.5 26.8
2015-Jan-25 13:00N 10°05' W 145°38'0 0.3 26.8
2015-Jan-25 11:30N 10°04' W 145°38'1 5.2 26.8
2015-Jan-25 11:15N 10°03' W 145°38'0 0.0 26.8
2015-Jan-25 08:15N 10°03' W 145°38'1 1.1 26.8
2015-Jan-25 07:15N 10°03' W 145°37'0 0.0 26.8
2015-Jan-25 06:30N 10°03' W 145°37'1 2.6 26.9
2015-Jan-25 06:15N 10°03' W 145°36'1 0.3 26.9
2015-Jan-25 04:30N 10°02' W 145°36'1 2.4 26.9
2015-Jan-25 04:15N 10°03' W 145°36'1 1.2 26.9
2015-Jan-25 03:45N 10°02' W 145°36'0 0.5 26.9
2015-Jan-25 03:30N 10°02' W 145°36'0 0.6 26.9
2015-Jan-25 02:45N 10°03' W 145°35'1 1.0 26.9
2015-Jan-25 02:00N 10°03' W 145°35'0 0.0 27.0
2015-Jan-25 01:45N 10°03' W 145°35'0 0.0 27.0
2015-Jan-25 00:30N 10°03' W 145°35'0 0.5 27.0
2015-Jan-25 00:15N 10°03' W 145°35'2 1.0 27.0
2015-Jan-24 22:45N 10°05' W 145°34'0 0.0 27.0
2015-Jan-24 21:00N 10°05' W 145°34'1 1.5 26.9
2015-Jan-24 20:15N 10°06' W 145°34'0 0.0 26.8
2015-Jan-24 19:30N 10°06' W 145°34'0 0.0 26.8
2015-Jan-24 19:15N 10°06' W 145°34'1 1.0 26.8
2015-Jan-24 18:45N 10°05' W 145°34'0 0.0 26.8
2015-Jan-24 18:30N 10°05' W 145°34'0 0.0 26.8
2015-Jan-24 17:30N 10°05' W 145°34'0 0.3 26.8
2015-Jan-24 16:00N 10°05' W 145°34'0 0.0 26.8
2015-Jan-24 15:45N 10°05' W 145°34'0 0.0 26.8
2015-Jan-24 15:30N 10°05' W 145°34'1 1.9 26.8
2015-Jan-24 14:45N 10°06' W 145°36'0 0.1 26.8
2015-Jan-24 13:15N 10°06' W 145°36'0 0.0 26.8
2015-Jan-24 13:00N 10°06' W 145°36'1 0.4 26.8
2015-Jan-24 11:30N 10°06' W 145°36'1 0.3 26.8
2015-Jan-24 08:30N 10°05' W 145°37'0 0.0 26.8
2015-Jan-24 08:15N 10°05' W 145°37'1 1.8 26.9
2015-Jan-24 07:30N 10°04' W 145°37'2 2.3 26.9
2015-Jan-24 06:45N 10°03' W 145°38'1 0.4 26.9
2015-Jan-24 03:45N 10°03' W 145°37'1 2.6 26.9
2015-Jan-24 03:30N 10°03' W 145°38'0 0.0 26.9
2015-Jan-24 03:15N 10°03' W 145°38'1 5.4 26.9
2015-Jan-24 03:00N 10°02' W 145°39'0 0.0 26.9
2015-Jan-24 02:15N 10°02' W 145°39'2 6.6 27.0
2015-Jan-24 02:00N 10°03' W 145°38'1 0.9 27.0
2015-Jan-24 00:30N 10°02' W 145°38'1 0.4 27.0
2015-Jan-23 22:45N 10°01' W 145°38'0 0.0 26.9
2015-Jan-23 20:30N 10°01' W 145°38'1 1.5 26.9
2015-Jan-23 19:45N 10°00' W 145°38'1 3.4 26.9
2015-Jan-23 19:30N 10°01' W 145°38'1 2.8 26.9
2015-Jan-23 19:00N 09°59' W 145°38'0 0.0 26.8
2015-Jan-23 18:45N 09°59' W 145°38'0 0.2 26.8
2015-Jan-23 16:30N 09°59' W 145°39'0 0.0 26.8
2015-Jan-23 15:00N 09°59' W 145°39'1 4.9 26.8
2015-Jan-23 14:45N 09°59' W 145°38'0 0.0 26.8
2015-Jan-23 14:30N 09°59' W 145°38'0 0.0 26.8
2015-Jan-23 13:30N 09°59' W 145°38'0 0.0 26.8
2015-Jan-23 13:15N 09°59' W 145°38'2 1.5 26.8
2015-Jan-23 11:45N 09°57' W 145°40'0 0.0 26.9
2015-Jan-23 11:30N 09°57' W 145°40'0 0.0 26.9
2015-Jan-23 08:45N 09°57' W 145°40'1 1.5 26.9
2015-Jan-23 08:00N 09°57' W 145°39'0 0.0 26.9
2015-Jan-23 07:45N 09°57' W 145°39'0 0.0 26.9
2015-Jan-23 07:15N 09°57' W 145°39'2 6.0 26.9
2015-Jan-23 07:00N 09°55' W 145°39'0 0.0 26.9
2015-Jan-23 06:15N 09°55' W 145°39'0 0.0 26.9
2015-Jan-23 05:30N 09°55' W 145°39'1 0.5 26.9
2015-Jan-23 04:00N 09°54' W 145°39'0 0.0 26.9
2015-Jan-23 03:45N 09°54' W 145°39'0 0.0 26.9
2015-Jan-23 03:30N 09°54' W 145°39'0 0.0 26.9
2015-Jan-23 02:30N 09°54' W 145°39'0 1.7 27.0
2015-Jan-23 02:15N 09°54' W 145°39'0 0.0 27.0
2015-Jan-23 02:00N 09°54' W 145°39'0 0.0 27.0
2015-Jan-23 01:45N 09°54' W 145°39'1 1.2 27.0
2015-Jan-23 00:45N 09°53' W 145°39'0 0.0 27.0
2015-Jan-23 00:30N 09°53' W 145°39'1 0.7 27.0
2015-Jan-22 23:00N 09°52' W 145°39'2 0.5 26.9
2015-Jan-22 20:00N 09°51' W 145°37'1 0.9 26.9
2015-Jan-22 19:15N 09°52' W 145°37'0 0.0 26.8
2015-Jan-22 18:30N 09°52' W 145°37'0 0.0 26.8
2015-Jan-22 18:15N 09°52' W 145°37'0 0.3 26.8
2015-Jan-22 17:00N 09°52' W 145°38'0 0.0 26.8
2015-Jan-22 15:15N 09°52' W 145°38'1 2.6 26.8
2015-Jan-22 15:00N 09°52' W 145°38'0 0.0 26.8
2015-Jan-22 13:30N 09°52' W 145°38'0 0.1 26.8
2015-Jan-22 12:00N 09°52' W 145°38'0 0.0 26.8
2015-Jan-22 11:45N 09°52' W 145°38'2 0.6 26.8
2015-Jan-22 08:15N 09°50' W 145°39'0 0.4 26.9
2015-Jan-22 07:30N 09°50' W 145°39'0 0.0 26.9
2015-Jan-22 07:15N 09°50' W 145°39'0 0.0 26.9
2015-Jan-22 06:45N 09°50' W 145°39'1 3.7 26.9
2015-Jan-22 06:30N 09°49' W 145°39'0 0.1 26.9
2015-Jan-22 04:30N 09°49' W 145°39'0 0.0 26.9
2015-Jan-22 04:15N 09°49' W 145°39'1 2.9 26.9
2015-Jan-22 04:00N 09°49' W 145°38'1 2.9 26.9
2015-Jan-22 03:45N 09°49' W 145°39'1 0.6 26.9
2015-Jan-22 02:30N 09°49' W 145°38'0 1.5 27.0
2015-Jan-22 02:15N 09°49' W 145°38'1 0.4 27.0
2015-Jan-22 01:00N 09°49' W 145°38'0 0.0 27.0
2015-Jan-22 00:45N 09°49' W 145°38'1 0.9 27.0
2015-Jan-21 23:15N 09°50' W 145°39'0 0.0 27.0
2015-Jan-21 23:00N 09°50' W 145°39'0 0.0 26.9
2015-Jan-21 20:15N 09°50' W 145°39'1 1.9 26.8
2015-Jan-21 19:45N 09°50' W 145°38'1 0.5 26.8
2015-Jan-21 18:45N 09°50' W 145°38'0 0.0 26.8
2015-Jan-21 16:00N 09°50' W 145°38'0 0.8 26.8
2015-Jan-21 15:45N 09°51' W 145°38'0 0.0 26.8
2015-Jan-21 15:30N 09°51' W 145°38'0 0.0 26.8
2015-Jan-21 15:15N 09°51' W 145°38'1 0.8 26.8
2015-Jan-21 13:45N 09°50' W 145°40'0 0.0 26.8
2015-Jan-21 13:30N 09°50' W 145°40'0 0.3 26.8
2015-Jan-21 12:15N 09°50' W 145°40'2 8.8 26.8
2015-Jan-21 12:00N 09°49' W 145°42'1 0.3 26.8
2015-Jan-21 07:45N 09°49' W 145°43'0 0.0 26.9
2015-Jan-21 07:00N 09°49' W 145°43'0 0.0 26.9
2015-Jan-21 06:00N 09°49' W 145°43'1 1.0 26.9
2015-Jan-21 05:00N 09°48' W 145°42'1 3.9 26.9
2015-Jan-21 04:45N 09°49' W 145°43'1 0.5 26.9
2015-Jan-21 03:15N 09°48' W 145°43'1 1.1 26.9
2015-Jan-21 02:45N 09°47' W 145°43'0 0.0 26.9
2015-Jan-21 02:30N 09°47' W 145°43'0 0.3 26.9
2015-Jan-21 01:15N 09°48' W 145°43'0 1.5 26.9
2015-Jan-21 01:00N 09°47' W 145°42'0 0.0 26.9
2015-Jan-20 23:30N 09°47' W 145°42'2 8.3 26.9
2015-Jan-20 23:15N 09°47' W 145°44'0 0.0 26.9
2015-Jan-20 20:45N 09°47' W 145°44'1 1.9 26.9
2015-Jan-20 20:00N 09°46' W 145°43'1 3.1 26.9
2015-Jan-20 19:45N 09°47' W 145°44'2 4.6 26.9
2015-Jan-20 19:15N 09°45' W 145°44'0 0.0 26.8
2015-Jan-20 19:00N 09°45' W 145°44'0 0.0 26.8
2015-Jan-20 18:15N 09°45' W 145°44'1 0.3 26.8
2015-Jan-20 16:15N 09°45' W 145°43'0 0.0 26.8
2015-Jan-20 15:45N 09°45' W 145°43'0 0.0 26.8
2015-Jan-20 15:30N 09°45' W 145°43'2 2.2 26.8
2015-Jan-20 14:45N 09°44' W 145°44'0 0.0 26.8
2015-Jan-20 14:00N 09°44' W 145°44'2 8.5 26.8
2015-Jan-20 13:45N 09°42' W 145°44'0 0.0 26.8
2015-Jan-20 12:15N 09°42' W 145°44'1 0.2 26.9
2015-Jan-20 08:15N 09°42' W 145°43'0 0.0 26.9
2015-Jan-20 08:00N 09°42' W 145°43'0 0.4 26.9
2015-Jan-20 07:30N 09°42' W 145°43'1 2.1 26.9
2015-Jan-20 07:15N 09°41' W 145°43'2 2.1 26.9
2015-Jan-20 06:30N 09°40' W 145°43'0 0.0 26.9
2015-Jan-20 05:30N 09°40' W 145°43'0 0.0 26.9
2015-Jan-20 03:45N 09°40' W 145°43'0 0.0 26.9
2015-Jan-20 03:00N 09°40' W 145°43'310.2 27.0
2015-Jan-20 02:45N 09°39' W 145°41'0 0.0 27.0
2015-Jan-20 01:15N 09°39' W 145°41'0 0.0 27.0
2015-Jan-19 23:45N 09°39' W 145°41'0 0.0 27.0
2015-Jan-19 23:30N 09°39' W 145°41'0 0.1 27.0
2015-Jan-19 21:00N 09°39' W 145°40'   26.9

Dump ship's entire track history